sensor_id;sensor_type;location;lat;lon;timestamp;P1;durP1;ratioP1;P2;durP2;ratioP2
15814;SDS011;8008;50.024;8.172;2023-04-25T03:00:48;6.20;;;5.07;;
15814;SDS011;8008;50.024;8.172;2023-04-25T03:03:18;5.47;;;4.55;;
15814;SDS011;8008;50.024;8.172;2023-04-25T03:05:49;7.13;;;4.97;;
15814;SDS011;8008;50.024;8.172;2023-04-25T03:08:22;6.28;;;5.10;;
15814;SDS011;8008;50.024;8.172;2023-04-25T03:10:52;7.75;;;5.13;;
15814;SDS011;8008;50.024;8.172;2023-04-25T03:13:22;5.88;;;5.10;;
15814;SDS011;8008;50.024;8.172;2023-04-25T03:15:52;7.65;;;5.38;;
15814;SDS011;8008;50.024;8.172;2023-04-25T03:18:20;8.25;;;5.85;;
15814;SDS011;8008;50.024;8.172;2023-04-25T03:20:48;9.63;;;6.20;;
15814;SDS011;8008;50.024;8.172;2023-04-25T03:23:16;9.95;;;6.45;;
15814;SDS011;8008;50.024;8.172;2023-04-25T03:25:44;10.07;;;6.75;;
15814;SDS011;8008;50.024;8.172;2023-04-25T03:28:12;9.68;;;6.40;;
15814;SDS011;8008;50.024;8.172;2023-04-25T03:30:40;11.05;;;6.63;;
15814;SDS011;8008;50.024;8.172;2023-04-25T03:33:10;9.15;;;6.25;;
15814;SDS011;8008;50.024;8.172;2023-04-25T03:35:38;12.23;;;7.28;;
15814;SDS011;8008;50.024;8.172;2023-04-25T03:38:06;12.75;;;7.03;;
15814;SDS011;8008;50.024;8.172;2023-04-25T03:40:38;9.63;;;6.68;;
15814;SDS011;8008;50.024;8.172;2023-04-25T03:43:19;10.48;;;7.25;;
15814;SDS011;8008;50.024;8.172;2023-04-25T03:45:55;9.90;;;7.07;;
15814;SDS011;8008;50.024;8.172;2023-04-25T03:48:26;11.23;;;7.32;;
15814;SDS011;8008;50.024;8.172;2023-04-25T03:50:54;12.00;;;7.13;;
15814;SDS011;8008;50.024;8.172;2023-04-25T03:53:22;10.80;;;7.18;;
15814;SDS011;8008;50.024;8.172;2023-04-25T03:56:09;11.57;;;7.63;;
15814;SDS011;8008;50.024;8.172;2023-04-25T03:58:38;11.68;;;7.55;;
15814;SDS011;8008;50.024;8.172;2023-04-25T04:01:06;14.48;;;7.32;;
15814;SDS011;8008;50.024;8.172;2023-04-25T04:03:38;13.40;;;7.30;;
15814;SDS011;8008;50.024;8.172;2023-04-25T04:06:07;11.23;;;7.72;;
15814;SDS011;8008;50.024;8.172;2023-04-25T04:08:38;13.82;;;7.72;;
15814;SDS011;8008;50.024;8.172;2023-04-25T04:11:08;11.50;;;7.45;;
15814;SDS011;8008;50.024;8.172;2023-04-25T04:13:37;11.98;;;7.18;;
15814;SDS011;8008;50.024;8.172;2023-04-25T04:16:06;13.45;;;7.90;;
15814;SDS011;8008;50.024;8.172;2023-04-25T04:18:34;14.00;;;7.57;;
15814;SDS011;8008;50.024;8.172;2023-04-25T04:21:03;16.38;;;6.97;;
15814;SDS011;8008;50.024;8.172;2023-04-25T04:23:34;11.98;;;7.20;;
15814;SDS011;8008;50.024;8.172;2023-04-25T04:26:05;11.90;;;7.43;;
15814;SDS011;8008;50.024;8.172;2023-04-25T04:28:52;11.68;;;6.60;;
15814;SDS011;8008;50.024;8.172;2023-04-25T04:31:39;14.88;;;6.38;;
15814;SDS011;8008;50.024;8.172;2023-04-25T04:34:07;8.27;;;5.30;;
15814;SDS011;8008;50.024;8.172;2023-04-25T04:36:37;8.57;;;5.40;;
15814;SDS011;8008;50.024;8.172;2023-04-25T04:39:06;11.32;;;5.20;;
15814;SDS011;8008;50.024;8.172;2023-04-25T04:41:41;8.90;;;5.18;;
15814;SDS011;8008;50.024;8.172;2023-04-25T04:44:32;12.95;;;5.43;;
15814;SDS011;8008;50.024;8.172;2023-04-25T04:47:12;9.73;;;5.35;;
15814;SDS011;8008;50.024;8.172;2023-04-25T04:50:10;11.10;;;5.07;;
15814;SDS011;8008;50.024;8.172;2023-04-25T04:53:01;11.32;;;5.20;;
15814;SDS011;8008;50.024;8.172;2023-04-25T04:55:43;10.70;;;5.53;;
15814;SDS011;8008;50.024;8.172;2023-04-25T04:58:23;9.85;;;4.80;;
15814;SDS011;8008;50.024;8.172;2023-04-25T05:01:01;10.15;;;4.95;;
15814;SDS011;8008;50.024;8.172;2023-04-25T05:03:48;12.45;;;5.18;;
15814;SDS011;8008;50.024;8.172;2023-04-25T05:06:43;10.63;;;4.70;;
15814;SDS011;8008;50.024;8.172;2023-04-25T05:09:27;10.60;;;5.07;;
15814;SDS011;8008;50.024;8.172;2023-04-25T05:12:04;13.23;;;5.30;;
15814;SDS011;8008;50.024;8.172;2023-04-25T05:14:47;12.77;;;5.20;;
15814;SDS011;8008;50.024;8.172;2023-04-25T05:17:37;12.18;;;5.20;;
15814;SDS011;8008;50.024;8.172;2023-04-25T05:20:20;9.27;;;4.50;;
15814;SDS011;8008;50.024;8.172;2023-04-25T05:23:12;7.95;;;4.60;;
15814;SDS011;8008;50.024;8.172;2023-04-25T05:25:54;9.45;;;4.47;;
15814;SDS011;8008;50.024;8.172;2023-04-25T05:28:51;11.27;;;4.60;;
15814;SDS011;8008;50.024;8.172;2023-04-25T05:31:39;11.48;;;5.32;;
15814;SDS011;8008;50.024;8.172;2023-04-25T05:34:11;10.85;;;5.07;;
15814;SDS011;8008;50.024;8.172;2023-04-25T05:36:56;11.85;;;4.55;;
15814;SDS011;8008;50.024;8.172;2023-04-25T05:39:24;8.63;;;4.55;;
15814;SDS011;8008;50.024;8.172;2023-04-25T05:42:08;9.10;;;4.22;;
15814;SDS011;8008;50.024;8.172;2023-04-25T05:44:55;10.80;;;4.60;;
15814;SDS011;8008;50.024;8.172;2023-04-25T05:47:43;12.23;;;4.43;;
15814;SDS011;8008;50.024;8.172;2023-04-25T05:50:19;11.87;;;4.90;;
15814;SDS011;8008;50.024;8.172;2023-04-25T05:53:09;10.63;;;4.30;;
15814;SDS011;8008;50.024;8.172;2023-04-25T05:55:40;9.45;;;4.50;;
15814;SDS011;8008;50.024;8.172;2023-04-25T05:58:20;11.02;;;4.47;;
15814;SDS011;8008;50.024;8.172;2023-04-25T06:00:48;10.00;;;4.37;;
15814;SDS011;8008;50.024;8.172;2023-04-25T06:03:16;11.75;;;4.78;;
15814;SDS011;8008;50.024;8.172;2023-04-25T06:05:47;7.85;;;4.35;;
15814;SDS011;8008;50.024;8.172;2023-04-25T06:08:15;11.52;;;4.28;;
15814;SDS011;8008;50.024;8.172;2023-04-25T06:10:43;9.93;;;4.40;;
15814;SDS011;8008;50.024;8.172;2023-04-25T06:13:11;11.25;;;4.50;;
15814;SDS011;8008;50.024;8.172;2023-04-25T06:15:40;8.35;;;3.80;;
15814;SDS011;8008;50.024;8.172;2023-04-25T06:18:09;6.35;;;3.80;;
15814;SDS011;8008;50.024;8.172;2023-04-25T06:20:36;11.88;;;4.32;;
15814;SDS011;8008;50.024;8.172;2023-04-25T06:23:05;7.47;;;4.32;;
15814;SDS011;8008;50.024;8.172;2023-04-25T06:25:49;12.23;;;4.30;;
15814;SDS011;8008;50.024;8.172;2023-04-25T06:28:17;8.38;;;4.10;;
15814;SDS011;8008;50.024;8.172;2023-04-25T06:30:46;6.75;;;4.18;;
15814;SDS011;8008;50.024;8.172;2023-04-25T06:33:18;8.88;;;4.82;;
15814;SDS011;8008;50.024;8.172;2023-04-25T06:35:46;11.80;;;4.80;;
15814;SDS011;8008;50.024;8.172;2023-04-25T06:38:17;10.40;;;4.75;;
15814;SDS011;8008;50.024;8.172;2023-04-25T06:40:49;8.30;;;4.57;;
15814;SDS011;8008;50.024;8.172;2023-04-25T06:43:18;10.88;;;4.70;;
15814;SDS011;8008;50.024;8.172;2023-04-25T06:45:50;13.23;;;4.93;;
15814;SDS011;8008;50.024;8.172;2023-04-25T06:48:19;13.10;;;4.38;;
15814;SDS011;8008;50.024;8.172;2023-04-25T06:50:48;10.52;;;4.03;;
15814;SDS011;8008;50.024;8.172;2023-04-25T06:53:17;9.57;;;4.45;;
15814;SDS011;8008;50.024;8.172;2023-04-25T06:55:51;8.67;;;3.80;;
15814;SDS011;8008;50.024;8.172;2023-04-25T06:58:22;7.95;;;4.07;;
15814;SDS011;8008;50.024;8.172;2023-04-25T07:01:14;9.63;;;3.97;;
15814;SDS011;8008;50.024;8.172;2023-04-25T07:03:42;9.30;;;4.45;;
15814;SDS011;8008;50.024;8.172;2023-04-25T07:06:15;8.15;;;4.05;;
15814;SDS011;8008;50.024;8.172;2023-04-25T07:08:44;9.80;;;4.55;;
15814;SDS011;8008;50.024;8.172;2023-04-25T07:11:12;7.60;;;4.20;;
15814;SDS011;8008;50.024;8.172;2023-04-25T07:13:40;10.25;;;3.65;;
15814;SDS011;8008;50.024;8.172;2023-04-25T07:16:07;6.63;;;3.33;;
15814;SDS011;8008;50.024;8.172;2023-04-25T07:18:37;6.45;;;3.40;;
15814;SDS011;8008;50.024;8.172;2023-04-25T07:21:05;5.15;;;3.40;;
15814;SDS011;8008;50.024;8.172;2023-04-25T07:23:34;6.63;;;3.30;;
15814;SDS011;8008;50.024;8.172;2023-04-25T07:26:09;6.22;;;3.10;;
15814;SDS011;8008;50.024;8.172;2023-04-25T07:28:48;4.13;;;2.80;;
15814;SDS011;8008;50.024;8.172;2023-04-25T07:31:17;5.30;;;2.47;;
15814;SDS011;8008;50.024;8.172;2023-04-25T07:33:47;4.70;;;2.40;;
15814;SDS011;8008;50.024;8.172;2023-04-25T07:36:15;5.68;;;2.90;;
15814;SDS011;8008;50.024;8.172;2023-04-25T07:38:44;4.68;;;2.83;;
15814;SDS011;8008;50.024;8.172;2023-04-25T07:41:12;4.82;;;2.42;;
15814;SDS011;8008;50.024;8.172;2023-04-25T07:43:40;3.42;;;2.10;;
15814;SDS011;8008;50.024;8.172;2023-04-25T07:46:07;5.85;;;2.40;;
15814;SDS011;8008;50.024;8.172;2023-04-25T07:48:36;7.90;;;2.38;;
15814;SDS011;8008;50.024;8.172;2023-04-25T07:51:06;3.92;;;1.98;;
15814;SDS011;8008;50.024;8.172;2023-04-25T07:53:35;5.35;;;2.58;;
15814;SDS011;8008;50.024;8.172;2023-04-25T07:56:10;5.50;;;2.50;;
15814;SDS011;8008;50.024;8.172;2023-04-25T07:58:41;3.50;;;2.50;;
15814;SDS011;8008;50.024;8.172;2023-04-25T08:01:12;3.50;;;2.20;;
15814;SDS011;8008;50.024;8.172;2023-04-25T08:03:48;4.25;;;2.42;;
15814;SDS011;8008;50.024;8.172;2023-04-25T08:06:32;4.15;;;2.38;;
15814;SDS011;8008;50.024;8.172;2023-04-25T08:09:13;5.82;;;2.17;;
15814;SDS011;8008;50.024;8.172;2023-04-25T08:11:41;4.75;;;2.53;;
15814;SDS011;8008;50.024;8.172;2023-04-25T08:14:13;5.22;;;2.35;;
15814;SDS011;8008;50.024;8.172;2023-04-25T08:16:42;4.97;;;2.20;;
15814;SDS011;8008;50.024;8.172;2023-04-25T08:19:11;2.90;;;1.83;;
15814;SDS011;8008;50.024;8.172;2023-04-25T08:21:40;2.70;;;1.92;;
15814;SDS011;8008;50.024;8.172;2023-04-25T08:24:13;2.83;;;2.03;;
15814;SDS011;8008;50.024;8.172;2023-04-25T08:26:42;3.42;;;1.80;;
15814;SDS011;8008;50.024;8.172;2023-04-25T08:29:13;5.18;;;3.13;;
15814;SDS011;8008;50.024;8.172;2023-04-25T08:31:42;2.10;;;1.88;;
15814;SDS011;8008;50.024;8.172;2023-04-25T08:34:12;7.40;;;2.10;;
15814;SDS011;8008;50.024;8.172;2023-04-25T08:36:44;3.20;;;1.90;;
15814;SDS011;8008;50.024;8.172;2023-04-25T08:39:20;4.20;;;2.15;;
15814;SDS011;8008;50.024;8.172;2023-04-25T08:42:18;5.35;;;2.13;;
15814;SDS011;8008;50.024;8.172;2023-04-25T08:44:48;6.38;;;2.13;;
15814;SDS011;8008;50.024;8.172;2023-04-25T08:47:18;5.07;;;1.95;;
15814;SDS011;8008;50.024;8.172;2023-04-25T08:49:54;4.80;;;2.03;;
15814;SDS011;8008;50.024;8.172;2023-04-25T08:52:24;8.93;;;2.50;;
15814;SDS011;8008;50.024;8.172;2023-04-25T08:54:57;5.85;;;2.25;;
15814;SDS011;8008;50.024;8.172;2023-04-25T08:57:28;5.20;;;2.60;;
15814;SDS011;8008;50.024;8.172;2023-04-25T08:59:57;5.60;;;2.70;;
15814;SDS011;8008;50.024;8.172;2023-04-25T09:02:26;4.82;;;2.40;;
15814;SDS011;8008;50.024;8.172;2023-04-25T09:04:55;6.75;;;2.63;;
15814;SDS011;8008;50.024;8.172;2023-04-25T09:07:25;4.88;;;2.78;;
15814;SDS011;8008;50.024;8.172;2023-04-25T09:09:53;6.50;;;2.88;;
15814;SDS011;8008;50.024;8.172;2023-04-25T09:12:21;4.22;;;2.90;;
15814;SDS011;8008;50.024;8.172;2023-04-25T09:15:00;6.88;;;2.88;;
15814;SDS011;8008;50.024;8.172;2023-04-25T09:17:59;3.67;;;2.85;;
15814;SDS011;8008;50.024;8.172;2023-04-25T09:20:41;4.82;;;2.85;;
15814;SDS011;8008;50.024;8.172;2023-04-25T09:23:29;6.00;;;2.90;;
15814;SDS011;8008;50.024;8.172;2023-04-25T09:25:59;4.15;;;2.50;;
15814;SDS011;8008;50.024;8.172;2023-04-25T09:28:27;7.40;;;3.03;;
15814;SDS011;8008;50.024;8.172;2023-04-25T09:30:57;4.35;;;3.25;;
15814;SDS011;8008;50.024;8.172;2023-04-25T09:33:36;4.30;;;2.90;;
15814;SDS011;8008;50.024;8.172;2023-04-25T09:36:07;5.60;;;2.70;;
15814;SDS011;8008;50.024;8.172;2023-04-25T09:38:59;6.30;;;3.50;;
15814;SDS011;8008;50.024;8.172;2023-04-25T09:41:32;7.03;;;3.30;;
15814;SDS011;8008;50.024;8.172;2023-04-25T09:44:07;8.00;;;3.60;;
15814;SDS011;8008;50.024;8.172;2023-04-25T09:46:36;7.28;;;3.65;;
15814;SDS011;8008;50.024;8.172;2023-04-25T09:49:10;6.82;;;3.90;;
15814;SDS011;8008;50.024;8.172;2023-04-25T09:52:01;5.88;;;3.65;;
15814;SDS011;8008;50.024;8.172;2023-04-25T09:54:40;5.85;;;3.67;;
15814;SDS011;8008;50.024;8.172;2023-04-25T09:57:13;7.15;;;3.65;;
15814;SDS011;8008;50.024;8.172;2023-04-25T09:59:45;4.68;;;3.40;;
15814;SDS011;8008;50.024;8.172;2023-04-25T10:02:15;7.68;;;3.80;;
15814;SDS011;8008;50.024;8.172;2023-04-25T10:04:48;5.90;;;3.70;;
15814;SDS011;8008;50.024;8.172;2023-04-25T10:07:26;5.82;;;3.20;;
15814;SDS011;8008;50.024;8.172;2023-04-25T10:10:00;6.05;;;3.47;;
15814;SDS011;8008;50.024;8.172;2023-04-25T10:12:30;6.35;;;3.75;;
15814;SDS011;8008;50.024;8.172;2023-04-25T10:14:58;6.55;;;3.42;;
15814;SDS011;8008;50.024;8.172;2023-04-25T10:17:26;7.78;;;3.70;;
15814;SDS011;8008;50.024;8.172;2023-04-25T10:19:55;7.25;;;3.05;;
15814;SDS011;8008;50.024;8.172;2023-04-25T10:22:26;7.28;;;3.63;;
15814;SDS011;8008;50.024;8.172;2023-04-25T10:24:59;6.80;;;3.80;;
15814;SDS011;8008;50.024;8.172;2023-04-25T10:27:30;6.07;;;3.75;;
15814;SDS011;8008;50.024;8.172;2023-04-25T10:30:01;4.68;;;3.47;;
15814;SDS011;8008;50.024;8.172;2023-04-25T10:32:31;6.47;;;3.50;;
15814;SDS011;8008;50.024;8.172;2023-04-25T10:35:09;6.95;;;3.95;;
15814;SDS011;8008;50.024;8.172;2023-04-25T10:37:44;6.80;;;3.85;;
15814;SDS011;8008;50.024;8.172;2023-04-25T10:40:25;6.05;;;3.63;;
15814;SDS011;8008;50.024;8.172;2023-04-25T10:42:53;8.07;;;3.72;;
15814;SDS011;8008;50.024;8.172;2023-04-25T10:45:22;7.43;;;3.63;;
15814;SDS011;8008;50.024;8.172;2023-04-25T10:47:50;5.85;;;3.78;;
15814;SDS011;8008;50.024;8.172;2023-04-25T10:50:18;4.32;;;3.35;;
15814;SDS011;8008;50.024;8.172;2023-04-25T10:52:46;8.05;;;3.78;;
15814;SDS011;8008;50.024;8.172;2023-04-25T10:55:14;10.00;;;3.60;;
15814;SDS011;8008;50.024;8.172;2023-04-25T10:57:44;4.60;;;3.28;;
15814;SDS011;8008;50.024;8.172;2023-04-25T11:00:15;7.18;;;3.20;;
15814;SDS011;8008;50.024;8.172;2023-04-25T11:02:45;8.27;;;3.25;;
15814;SDS011;8008;50.024;8.172;2023-04-25T11:05:20;8.18;;;3.28;;
15814;SDS011;8008;50.024;8.172;2023-04-25T11:07:51;7.20;;;3.30;;
15814;SDS011;8008;50.024;8.172;2023-04-25T11:10:33;5.75;;;3.10;;
15814;SDS011;8008;50.024;8.172;2023-04-25T11:13:03;7.45;;;3.28;;
15814;SDS011;8008;50.024;8.172;2023-04-25T11:15:32;7.90;;;3.50;;
15814;SDS011;8008;50.024;8.172;2023-04-25T11:17:59;7.78;;;3.28;;
15814;SDS011;8008;50.024;8.172;2023-04-25T11:20:28;10.35;;;3.50;;
15814;SDS011;8008;50.024;8.172;2023-04-25T11:22:57;8.00;;;3.28;;
15814;SDS011;8008;50.024;8.172;2023-04-25T11:25:26;6.93;;;3.10;;
15814;SDS011;8008;50.024;8.172;2023-04-25T11:27:55;5.35;;;3.10;;
15814;SDS011;8008;50.024;8.172;2023-04-25T11:30:25;7.75;;;3.40;;
15814;SDS011;8008;50.024;8.172;2023-04-25T11:32:54;5.78;;;3.30;;
15814;SDS011;8008;50.024;8.172;2023-04-25T11:35:23;7.07;;;3.03;;
15814;SDS011;8008;50.024;8.172;2023-04-25T11:37:52;5.90;;;2.63;;
15814;SDS011;8008;50.024;8.172;2023-04-25T11:40:20;5.00;;;2.75;;
15814;SDS011;8008;50.024;8.172;2023-04-25T11:42:47;7.03;;;3.10;;
15814;SDS011;8008;50.024;8.172;2023-04-25T11:45:19;10.02;;;2.92;;
15814;SDS011;8008;50.024;8.172;2023-04-25T11:47:48;7.43;;;3.10;;
15814;SDS011;8008;50.024;8.172;2023-04-25T11:50:16;13.25;;;3.97;;
15814;SDS011;8008;50.024;8.172;2023-04-25T11:52:45;7.88;;;3.20;;
15814;SDS011;8008;50.024;8.172;2023-04-25T11:55:14;5.03;;;2.53;;
15814;SDS011;8008;50.024;8.172;2023-04-25T11:57:43;8.73;;;2.88;;
15814;SDS011;8008;50.024;8.172;2023-04-25T12:00:13;5.97;;;2.88;;
15814;SDS011;8008;50.024;8.172;2023-04-25T12:02:45;7.05;;;2.95;;
15814;SDS011;8008;50.024;8.172;2023-04-25T12:05:16;7.18;;;3.00;;
15814;SDS011;8008;50.024;8.172;2023-04-25T12:07:47;6.60;;;3.00;;
15814;SDS011;8008;50.024;8.172;2023-04-25T12:10:16;7.32;;;2.97;;
15814;SDS011;8008;50.024;8.172;2023-04-25T12:12:45;6.60;;;2.67;;
15814;SDS011;8008;50.024;8.172;2023-04-25T12:15:15;4.97;;;2.67;;
15814;SDS011;8008;50.024;8.172;2023-04-25T12:17:46;7.03;;;2.75;;
15814;SDS011;8008;50.024;8.172;2023-04-25T12:20:16;4.53;;;2.42;;
15814;SDS011;8008;50.024;8.172;2023-04-25T12:22:46;7.38;;;2.67;;
15814;SDS011;8008;50.024;8.172;2023-04-25T12:28:09;7.75;;;2.72;;
15814;SDS011;8008;50.024;8.172;2023-04-25T12:30:53;5.70;;;2.17;;
15814;SDS011;8008;50.024;8.172;2023-04-25T12:33:22;4.35;;;2.33;;
15814;SDS011;8008;50.024;8.172;2023-04-25T12:35:52;6.40;;;2.40;;
15814;SDS011;8008;50.024;8.172;2023-04-25T12:38:20;4.35;;;2.50;;
15814;SDS011;8008;50.024;8.172;2023-04-25T12:40:49;5.32;;;2.33;;
15814;SDS011;8008;50.024;8.172;2023-04-25T12:43:17;5.78;;;2.50;;
15814;SDS011;8008;50.024;8.172;2023-04-25T12:45:47;6.60;;;2.35;;
15814;SDS011;8008;50.024;8.172;2023-04-25T12:48:16;8.25;;;2.40;;
15814;SDS011;8008;50.024;8.172;2023-04-25T12:50:44;8.05;;;2.47;;
15814;SDS011;8008;50.024;8.172;2023-04-25T12:53:16;5.68;;;2.90;;
15814;SDS011;8008;50.024;8.172;2023-04-25T12:55:45;4.82;;;2.60;;
15814;SDS011;8008;50.024;8.172;2023-04-25T12:58:13;6.13;;;2.50;;
15814;SDS011;8008;50.024;8.172;2023-04-25T13:00:41;5.68;;;2.42;;
15814;SDS011;8008;50.024;8.172;2023-04-25T13:03:09;7.90;;;2.80;;
15814;SDS011;8008;50.024;8.172;2023-04-25T13:05:39;5.18;;;2.50;;
15814;SDS011;8008;50.024;8.172;2023-04-25T13:08:07;5.72;;;2.60;;
15814;SDS011;8008;50.024;8.172;2023-04-25T13:10:37;7.47;;;2.70;;
15814;SDS011;8008;50.024;8.172;2023-04-25T13:13:05;9.75;;;2.42;;
15814;SDS011;8008;50.024;8.172;2023-04-25T13:15:34;8.70;;;2.33;;
15814;SDS011;8008;50.024;8.172;2023-04-25T13:18:02;3.67;;;2.30;;
15814;SDS011;8008;50.024;8.172;2023-04-25T13:20:31;4.95;;;2.17;;
15814;SDS011;8008;50.024;8.172;2023-04-25T13:22:59;6.90;;;2.38;;
15814;SDS011;8008;50.024;8.172;2023-04-25T13:25:28;5.40;;;2.15;;
15814;SDS011;8008;50.024;8.172;2023-04-25T13:27:57;3.80;;;2.05;;
15814;SDS011;8008;50.024;8.172;2023-04-25T13:30:26;6.32;;;2.17;;
15814;SDS011;8008;50.024;8.172;2023-04-25T13:32:54;3.67;;;2.20;;
15814;SDS011;8008;50.024;8.172;2023-04-25T13:35:23;7.18;;;2.30;;
15814;SDS011;8008;50.024;8.172;2023-04-25T13:37:51;4.40;;;1.98;;
15814;SDS011;8008;50.024;8.172;2023-04-25T13:40:19;4.53;;;2.05;;
15814;SDS011;8008;50.024;8.172;2023-04-25T13:42:50;6.85;;;2.30;;
15814;SDS011;8008;50.024;8.172;2023-04-25T13:45:19;4.93;;;2.40;;
15814;SDS011;8008;50.024;8.172;2023-04-25T13:47:47;4.55;;;2.10;;
15814;SDS011;8008;50.024;8.172;2023-04-25T13:50:16;4.03;;;2.10;;
15814;SDS011;8008;50.024;8.172;2023-04-25T13:52:44;4.93;;;2.17;;
15814;SDS011;8008;50.024;8.172;2023-04-25T13:55:12;8.75;;;2.00;;
15814;SDS011;8008;50.024;8.172;2023-04-25T13:57:40;5.68;;;1.95;;
15814;SDS011;8008;50.024;8.172;2023-04-25T14:00:08;4.20;;;2.13;;
15814;SDS011;8008;50.024;8.172;2023-04-25T14:02:38;3.65;;;1.83;;
15814;SDS011;8008;50.024;8.172;2023-04-25T14:05:06;6.57;;;2.15;;
15814;SDS011;8008;50.024;8.172;2023-04-25T14:07:35;3.38;;;2.10;;
15814;SDS011;8008;50.024;8.172;2023-04-25T14:10:04;5.00;;;2.13;;
15814;SDS011;8008;50.024;8.172;2023-04-25T14:12:33;10.32;;;2.25;;
15814;SDS011;8008;50.024;8.172;2023-04-25T14:15:01;4.70;;;2.33;;
15814;SDS011;8008;50.024;8.172;2023-04-25T14:17:29;6.43;;;2.00;;
15814;SDS011;8008;50.024;8.172;2023-04-25T14:19:58;6.30;;;2.35;;
15814;SDS011;8008;50.024;8.172;2023-04-25T14:22:26;4.80;;;2.28;;
15814;SDS011;8008;50.024;8.172;2023-04-25T14:24:54;5.57;;;2.33;;
15814;SDS011;8008;50.024;8.172;2023-04-25T14:27:22;5.28;;;2.10;;
15814;SDS011;8008;50.024;8.172;2023-04-25T14:29:54;4.88;;;2.33;;
15814;SDS011;8008;50.024;8.172;2023-04-25T14:32:22;5.45;;;2.40;;
15814;SDS011;8008;50.024;8.172;2023-04-25T14:34:50;7.70;;;2.17;;
15814;SDS011;8008;50.024;8.172;2023-04-25T14:37:19;4.70;;;2.20;;
15814;SDS011;8008;50.024;8.172;2023-04-25T14:39:47;5.47;;;2.15;;
15814;SDS011;8008;50.024;8.172;2023-04-25T14:42:15;4.63;;;2.50;;
15814;SDS011;8008;50.024;8.172;2023-04-25T14:44:43;4.25;;;2.92;;
15814;SDS011;8008;50.024;8.172;2023-04-25T14:47:11;9.20;;;2.67;;
15814;SDS011;8008;50.024;8.172;2023-04-25T14:49:39;3.72;;;2.20;;
15814;SDS011;8008;50.024;8.172;2023-04-25T14:52:07;9.82;;;2.47;;
15814;SDS011;8008;50.024;8.172;2023-04-25T14:54:36;6.22;;;2.05;;
15814;SDS011;8008;50.024;8.172;2023-04-25T14:57:04;5.25;;;2.45;;
15814;SDS011;8008;50.024;8.172;2023-04-25T14:59:32;6.40;;;2.20;;
15814;SDS011;8008;50.024;8.172;2023-04-25T15:02:00;3.50;;;1.90;;
15814;SDS011;8008;50.024;8.172;2023-04-25T15:04:29;5.18;;;1.88;;
15814;SDS011;8008;50.024;8.172;2023-04-25T15:06:57;3.72;;;1.90;;
15814;SDS011;8008;50.024;8.172;2023-04-25T15:09:25;5.47;;;2.10;;
15814;SDS011;8008;50.024;8.172;2023-04-25T15:11:56;4.25;;;2.00;;
15814;SDS011;8008;50.024;8.172;2023-04-25T15:14:24;7.15;;;2.13;;
15814;SDS011;8008;50.024;8.172;2023-04-25T15:16:52;3.53;;;1.88;;
15814;SDS011;8008;50.024;8.172;2023-04-25T15:19:20;6.93;;;2.30;;
15814;SDS011;8008;50.024;8.172;2023-04-25T15:21:48;5.38;;;2.10;;
15814;SDS011;8008;50.024;8.172;2023-04-25T15:24:16;4.10;;;2.00;;
15814;SDS011;8008;50.024;8.172;2023-04-25T15:26:44;5.18;;;2.10;;
15814;SDS011;8008;50.024;8.172;2023-04-25T15:29:14;4.70;;;2.05;;
15814;SDS011;8008;50.024;8.172;2023-04-25T15:31:42;5.05;;;2.17;;
15814;SDS011;8008;50.024;8.172;2023-04-25T15:34:10;4.10;;;2.03;;
15814;SDS011;8008;50.024;8.172;2023-04-25T15:36:38;7.65;;;2.10;;
15814;SDS011;8008;50.024;8.172;2023-04-25T15:39:07;3.17;;;1.95;;
15814;SDS011;8008;50.024;8.172;2023-04-25T15:41:35;4.43;;;1.80;;
15814;SDS011;8008;50.024;8.172;2023-04-25T15:44:03;6.53;;;2.15;;
15814;SDS011;8008;50.024;8.172;2023-04-25T15:46:34;5.32;;;2.03;;
15814;SDS011;8008;50.024;8.172;2023-04-25T15:49:02;3.70;;;2.00;;
15814;SDS011;8008;50.024;8.172;2023-04-25T15:51:30;3.55;;;1.70;;
15814;SDS011;8008;50.024;8.172;2023-04-25T15:53:58;3.17;;;1.60;;
15814;SDS011;8008;50.024;8.172;2023-04-25T15:56:29;3.92;;;1.80;;
15814;SDS011;8008;50.024;8.172;2023-04-25T15:58:57;4.68;;;1.90;;
15814;SDS011;8008;50.024;8.172;2023-04-25T16:01:25;4.43;;;1.88;;
15814;SDS011;8008;50.024;8.172;2023-04-25T16:03:57;4.10;;;1.65;;
15814;SDS011;8008;50.024;8.172;2023-04-25T16:06:25;2.97;;;1.70;;
15814;SDS011;8008;50.024;8.172;2023-04-25T16:08:53;3.80;;;2.00;;
15814;SDS011;8008;50.024;8.172;2023-04-25T16:11:22;4.28;;;1.98;;
15814;SDS011;8008;50.024;8.172;2023-04-25T16:13:50;3.88;;;1.70;;
15814;SDS011;8008;50.024;8.172;2023-04-25T16:16:18;4.28;;;1.70;;
15814;SDS011;8008;50.024;8.172;2023-04-25T16:18:46;5.85;;;1.77;;
15814;SDS011;8008;50.024;8.172;2023-04-25T16:21:15;5.75;;;1.63;;
15814;SDS011;8008;50.024;8.172;2023-04-25T16:23:43;5.25;;;1.90;;
15814;SDS011;8008;50.024;8.172;2023-04-25T16:26:11;6.25;;;1.90;;
15814;SDS011;8008;50.024;8.172;2023-04-25T16:28:39;4.13;;;1.83;;
15814;SDS011;8008;50.024;8.172;2023-04-25T16:31:07;5.70;;;1.60;;
15814;SDS011;8008;50.024;8.172;2023-04-25T16:33:35;5.28;;;1.70;;
15814;SDS011;8008;50.024;8.172;2023-04-25T16:36:03;6.45;;;1.92;;
15814;SDS011;8008;50.024;8.172;2023-04-25T16:38:33;5.53;;;1.75;;
15814;SDS011;8008;50.024;8.172;2023-04-25T16:41:01;3.05;;;1.55;;
15814;SDS011;8008;50.024;8.172;2023-04-25T16:43:29;3.55;;;1.80;;
15814;SDS011;8008;50.024;8.172;2023-04-25T16:45:57;6.07;;;1.77;;
15814;SDS011;8008;50.024;8.172;2023-04-25T16:48:26;4.30;;;1.80;;
15814;SDS011;8008;50.024;8.172;2023-04-25T16:50:54;7.53;;;2.42;;
15814;SDS011;8008;50.024;8.172;2023-04-25T16:53:22;5.88;;;1.73;;
15814;SDS011;8008;50.024;8.172;2023-04-25T16:55:52;6.20;;;2.20;;
15814;SDS011;8008;50.024;8.172;2023-04-25T16:58:20;5.60;;;2.13;;
15814;SDS011;8008;50.024;8.172;2023-04-25T17:00:48;5.57;;;2.15;;
15814;SDS011;8008;50.024;8.172;2023-04-25T17:03:16;6.43;;;2.00;;
15814;SDS011;8008;50.024;8.172;2023-04-25T17:05:44;3.22;;;1.90;;
15814;SDS011;8008;50.024;8.172;2023-04-25T17:08:13;4.65;;;1.90;;
15814;SDS011;8008;50.024;8.172;2023-04-25T17:10:41;3.95;;;1.88;;
15814;SDS011;8008;50.024;8.172;2023-04-25T17:13:10;4.07;;;2.00;;
15814;SDS011;8008;50.024;8.172;2023-04-25T17:15:38;6.00;;;2.30;;
15814;SDS011;8008;50.024;8.172;2023-04-25T17:18:06;4.18;;;2.00;;
15814;SDS011;8008;50.024;8.172;2023-04-25T17:20:34;7.25;;;3.53;;
15814;SDS011;8008;50.024;8.172;2023-04-25T17:23:02;13.20;;;5.85;;
15814;SDS011;8008;50.024;8.172;2023-04-25T17:25:30;6.32;;;3.22;;
15814;SDS011;8008;50.024;8.172;2023-04-25T17:27:58;6.93;;;3.10;;
15814;SDS011;8008;50.024;8.172;2023-04-25T17:30:28;7.10;;;2.55;;
15814;SDS011;8008;50.024;8.172;2023-04-25T17:32:56;6.75;;;2.88;;
15814;SDS011;8008;50.024;8.172;2023-04-25T17:35:25;5.00;;;2.10;;
15814;SDS011;8008;50.024;8.172;2023-04-25T17:37:53;6.80;;;3.58;;
15814;SDS011;8008;50.024;8.172;2023-04-25T17:40:20;7.28;;;2.80;;
15814;SDS011;8008;50.024;8.172;2023-04-25T17:42:49;6.70;;;2.10;;
15814;SDS011;8008;50.024;8.172;2023-04-25T17:45:17;6.38;;;2.15;;
15814;SDS011;8008;50.024;8.172;2023-04-25T17:47:46;5.82;;;2.40;;
15814;SDS011;8008;50.024;8.172;2023-04-25T17:50:14;4.68;;;2.13;;
15814;SDS011;8008;50.024;8.172;2023-04-25T17:52:42;4.25;;;1.85;;
15814;SDS011;8008;50.024;8.172;2023-04-25T17:55:13;7.90;;;2.58;;
15814;SDS011;8008;50.024;8.172;2023-04-25T17:57:41;7.35;;;2.63;;
15814;SDS011;8008;50.024;8.172;2023-04-25T18:00:09;7.00;;;3.30;;
15814;SDS011;8008;50.024;8.172;2023-04-25T18:02:38;4.07;;;2.33;;
15814;SDS011;8008;50.024;8.172;2023-04-25T18:05:08;7.00;;;2.92;;
15814;SDS011;8008;50.024;8.172;2023-04-25T18:07:36;5.30;;;2.00;;
15814;SDS011;8008;50.024;8.172;2023-04-25T18:10:04;5.90;;;2.15;;
15814;SDS011;8008;50.024;8.172;2023-04-25T18:12:34;5.35;;;2.17;;
15814;SDS011;8008;50.024;8.172;2023-04-25T18:15:02;5.20;;;2.13;;
15814;SDS011;8008;50.024;8.172;2023-04-25T18:17:32;4.93;;;2.00;;
15814;SDS011;8008;50.024;8.172;2023-04-25T18:20:06;7.30;;;1.85;;
15814;SDS011;8008;50.024;8.172;2023-04-25T18:22:37;4.65;;;1.70;;
15814;SDS011;8008;50.024;8.172;2023-04-25T18:25:05;3.58;;;1.75;;